Time;durP1;ratioP1;P1;durP2;ratioP2;P2;SDS_P1;SDS_P2;PMS_P1;PMS_P2;Temp;Humidity;BMP_temperature;BMP_pressure;BME280_temperature;BME280_humidity;BME280_pressure;Samples;Min_cycle;Max_cycle;Signal;HPM_P1;HPM_P2
2022/06/20 00:01:16;;;;;;;;;;;;;;;;;;5067874;28;20386;-57
2022/06/20 00:03:45;;;;;;;28.85;12.15;;;;;;;;;;5067643;28;19912;-57
2022/06/20 00:06:19;;;;;;;;;;;;;;;;;;5059306;28;20028;-57
2022/06/20 00:08:51;;;;;;;23.77;11.23;;;;;;;;;;5065241;28;19943;-57
2022/06/20 00:11:26;;;;;;;27.55;11.18;;;;;;;;;;5061942;28;20031;-57
2022/06/20 00:13:54;;;;;;;24.52;12.13;;;;;;;;;;5061031;28;20237;-57
2022/06/20 00:16:22;;;;;;;29.05;13.05;;;;;;;;;;5063778;28;20024;-57
2022/06/20 00:18:49;;;;;;;27.20;12.98;;;;;;;;;;5065082;28;20406;-57
2022/06/20 00:21:18;;;;;;;27.75;13.10;;;;;;;;;;5062263;28;20102;-57
2022/06/20 00:23:43;;;;;;;28.92;13.55;;;;;;;;;;5065980;28;20134;-57
2022/06/20 00:26:09;;;;;;;31.70;12.20;;;;;;;;;;5064844;28;20122;-57
2022/06/20 00:28:38;;;;;;;28.25;11.20;;;;;;;;;;5069410;28;22131;-57
2022/06/20 00:31:03;;;;;;;30.35;11.98;;;;;;;;;;5068858;28;20039;-57
2022/06/20 00:33:32;;;;;;;28.63;12.70;;;;;;;;;;5068059;28;20021;-57
2022/06/20 00:35:58;;;;;;;31.43;12.37;;;;;;;;;;5067063;28;20162;-57
2022/06/20 00:38:25;;;;;;;24.75;11.90;;;;;;;;;;5067585;28;20273;-57
2022/06/20 00:40:54;;;;;;;26.77;12.57;;;;;;;;;;5061322;28;20081;-57
2022/06/20 00:43:37;;;;;;;30.95;12.70;;;;;;;;;;5065194;28;20020;-57
2022/06/20 00:46:08;;;;;;;29.33;12.75;;;;;;;;;;5068933;28;20055;-58
2022/06/20 00:48:42;;;;;;;26.45;12.52;;;;;;;;;;5066998;28;20021;-57
2022/06/20 00:51:26;;;;;;;30.80;12.30;;;;;;;;;;5067914;28;20031;-57
2022/06/20 00:54:01;;;;;;;23.10;12.20;;;;;;;;;;5068208;28;20052;-57
2022/06/20 00:56:36;;;;;;;27.13;11.98;;;;;;;;;;5069271;28;20373;-57
2022/06/20 00:59:07;;;;;;;26.92;12.55;;;;;;;;;;5073737;28;20099;-57
2022/06/20 01:01:38;;;;;;;24.33;11.50;;;;;;;;;;5067095;28;20040;-57
2022/06/20 01:04:10;;;;;;;27.00;12.38;;;;;;;;;;5076966;28;20031;-57
2022/06/20 01:06:40;;;;;;;23.67;12.10;;;;;;;;;;5062195;28;20032;-57
2022/06/20 01:09:08;;;;;;;24.90;12.13;;;;;;;;;;5068432;28;20025;-57
2022/06/20 01:11:56;;;;;;;19.80;11.82;;;;;;;;;;5070466;28;20128;-57
2022/06/20 01:14:33;;;;;;;30.73;12.32;;;;;;;;;;5062681;28;20032;-57
2022/06/20 01:16:59;;;;;;;27.40;11.00;;;;;;;;;;5064341;28;20032;-58
2022/06/20 01:19:50;;;;;;;25.02;11.98;;;;;;;;;;5068019;28;20695;-57
2022/06/20 01:22:42;;;;;;;27.73;12.20;;;;;;;;;;5058119;28;20494;-57
2022/06/20 01:25:32;;;;;;;29.90;11.65;;;;;;;;;;5058923;28;20041;-57
2022/06/20 01:28:00;;;;;;;27.65;12.60;;;;;;;;;;5066378;28;20093;-57
2022/06/20 01:30:32;;;;;;;29.73;12.90;;;;;;;;;;5072285;28;20028;-57
2022/06/20 01:32:58;;;;;;;24.30;12.52;;;;;;;;;;5071374;28;20028;-57
2022/06/20 01:38:12;;;;;;;26.38;11.88;;;;;;;;;;5070235;28;20047;-57
2022/06/20 01:42:18;;;;;;;30.27;11.95;;;;;;;;;;5066115;28;20047;-57
2022/06/20 01:43:28;;;;;;;24.17;11.52;;;;;;;;;;5064076;28;20033;-57
2022/06/20 01:45:58;;;;;;;37.75;12.70;;;;;;;;;;5069467;28;20028;-57
2022/06/20 01:48:26;;;;;;;24.52;12.00;;;;;;;;;;5067467;28;20025;-57
2022/06/20 01:50:52;;;;;;;23.35;12.30;;;;;;;;;;5064116;28;20115;-57
2022/06/20 01:53:21;;;;;;;24.17;11.90;;;;;;;;;;5070274;28;20034;-57
2022/06/20 01:55:49;;;;;;;30.10;12.25;;;;;;;;;;5066775;28;20391;-57
2022/06/20 01:58:22;;;;;;;22.20;11.98;;;;;;;;;;5066800;28;20032;-57
2022/06/20 02:00:48;;;;;;;27.48;12.20;;;;;;;;;;5069303;28;20028;-57
2022/06/20 02:03:19;;;;;;;36.28;12.38;;;;;;;;;;5070797;28;20086;-57
2022/06/20 02:05:48;;;;;;;24.33;11.90;;;;;;;;;;5066326;28;20087;-57
2022/06/20 02:08:18;;;;;;;25.27;12.32;;;;;;;;;;5067851;28;20488;-57
2022/06/20 02:11:09;;;;;;;26.85;11.82;;;;;;;;;;5069242;28;20487;-57
2022/06/20 02:13:41;;;;;;;30.58;12.32;;;;;;;;;;5062453;28;20071;-57
2022/06/20 02:16:11;;;;;;;20.98;11.52;;;;;;;;;;5066230;28;20031;-57
2022/06/20 02:18:40;;;;;;;25.33;11.93;;;;;;;;;;5067072;28;20066;-57
2022/06/20 02:21:11;;;;;;;24.85;12.05;;;;;;;;;;5068514;28;20480;-57
2022/06/20 02:23:42;;;;;;;24.75;12.05;;;;;;;;;;5069504;28;20411;-58
2022/06/20 02:26:09;;;;;;;23.98;12.10;;;;;;;;;;5070290;28;20021;-57
2022/06/20 02:28:47;;;;;;;24.27;12.05;;;;;;;;;;5067540;28;20028;-57
2022/06/20 02:31:13;;;;;;;24.83;11.55;;;;;;;;;;5068479;28;20119;-57
2022/06/20 02:33:38;;;;;;;23.83;12.27;;;;;;;;;;5068845;28;20435;-57
2022/06/20 02:36:06;;;;;;;21.77;12.38;;;;;;;;;;5068425;28;20035;-57
2022/06/20 02:38:32;;;;;;;20.17;11.43;;;;;;;;;;5070937;28;20556;-57
2022/06/20 02:40:58;;;;;;;22.88;12.82;;;;;;;;;;5065531;28;20036;-57
2022/06/20 02:43:26;;;;;;;26.30;12.00;;;;;;;;;;5069557;28;20591;-57
2022/06/20 02:45:54;;;;;;;23.38;11.68;;;;;;;;;;5071650;28;20470;-57
2022/06/20 02:48:21;;;;;;;24.20;11.93;;;;;;;;;;5072974;28;20499;-57
2022/06/20 02:50:52;;;;;;;18.85;11.85;;;;;;;;;;5073254;28;20047;-57
2022/06/20 02:53:32;;;;;;;25.77;12.23;;;;;;;;;;5070441;28;20451;-57
2022/06/20 02:55:58;;;;;;;29.00;12.63;;;;;;;;;;5073725;28;20032;-57
2022/06/20 02:58:28;;;;;;;26.95;13.10;;;;;;;;;;5075861;28;20115;-56
2022/06/20 03:01:15;;;;;;;22.23;11.70;;;;;;;;;;5072982;28;20082;-56
2022/06/20 03:03:46;;;;;;;18.77;11.18;;;;;;;;;;5074100;28;20689;-57
2022/06/20 03:06:24;;;;;;;25.33;11.60;;;;;;;;;;5072964;28;20032;-57
2022/06/20 03:08:50;;;;;;;35.25;12.60;;;;;;;;;;5070259;28;20489;-57
2022/06/20 03:11:16;;;;;;;23.05;12.90;;;;;;;;;;5061157;28;20032;-57
2022/06/20 03:13:42;;;;;;;30.20;12.50;;;;;;;;;;5064132;28;20407;-57
2022/06/20 03:16:08;;;;;;;22.33;12.48;;;;;;;;;;5065300;28;20058;-57
2022/06/20 03:18:42;;;;;;;27.48;13.30;;;;;;;;;;5066392;28;20024;-57
2022/06/20 03:21:08;;;;;;;25.48;12.70;;;;;;;;;;5061559;28;20025;-57
2022/06/20 03:23:34;;;;;;;30.48;14.80;;;;;;;;;;5067738;28;20097;-57
2022/06/20 03:26:03;;;;;;;27.40;12.73;;;;;;;;;;5067147;28;20043;-57
2022/06/20 03:28:31;;;;;;;23.13;12.60;;;;;;;;;;5070483;28;20087;-57
2022/06/20 03:30:58;;;;;;;28.40;13.23;;;;;;;;;;5066056;28;20119;-57
2022/06/20 03:33:24;;;;;;;24.73;13.40;;;;;;;;;;5074183;28;20285;-57
2022/06/20 03:36:21;;;;;;;30.10;13.75;;;;;;;;;;5069006;28;20032;-57
2022/06/20 03:38:48;;;;;;;23.13;13.50;;;;;;;;;;5062890;28;20472;-57
2022/06/20 03:41:16;;;;;;;22.05;13.23;;;;;;;;;;5069353;28;20506;-57
2022/06/20 03:43:48;;;;;;;30.30;13.65;;;;;;;;;;5063047;28;20179;-57
2022/06/20 03:46:30;;;;;;;32.42;13.27;;;;;;;;;;5066225;28;20028;-57
2022/06/20 03:49:05;;;;;;;28.38;12.60;;;;;;;;;;5066758;28;20028;-57
2022/06/20 03:51:47;;;;;;;25.90;12.63;;;;;;;;;;5070907;28;20119;-57
2022/06/20 03:54:21;;;;;;;29.83;12.77;;;;;;;;;;5068971;28;20516;-57
2022/06/20 03:56:56;;;;;;;28.30;13.18;;;;;;;;;;5065609;28;20115;-57
2022/06/20 03:59:26;;;;;;;29.65;13.68;;;;;;;;;;5073284;28;20407;-57
2022/06/20 04:02:16;;;;;;;32.33;13.05;;;;;;;;;;5064218;28;20033;-57
2022/06/20 04:04:52;;;;;;;;;;;;;;;;;;5073815;28;20028;-57
2022/06/20 04:07:28;;;;;;;31.35;15.38;;;;;;;;;;5073549;28;19977;-57
2022/06/20 04:10:58;;;;;;;28.40;14.05;;;;;;;;;;5061465;28;20111;-57
2022/06/20 04:13:46;;;;;;;29.90;13.15;;;;;;;;;;5065127;28;20072;-57
2022/06/20 04:16:30;;;;;;;23.85;12.40;;;;;;;;;;5060406;28;20044;-57
2022/06/20 04:19:02;;;;;;;31.65;12.85;;;;;;;;;;5060464;28;20552;-57
2022/06/20 04:21:36;;;;;;;28.08;13.32;;;;;;;;;;5063445;28;20544;-57
2022/06/20 04:24:27;;;;;;;24.15;12.80;;;;;;;;;;5068507;28;20579;-57
2022/06/20 04:27:01;;;;;;;30.25;13.27;;;;;;;;;;5065127;28;20510;-57
2022/06/20 04:29:47;;;;;;;29.58;12.55;;;;;;;;;;5066109;28;20522;-57
2022/06/20 04:32:18;;;;;;;33.55;12.82;;;;;;;;;;5064426;28;20103;-55
2022/06/20 04:34:52;;;;;;;23.67;12.77;;;;;;;;;;5065809;28;20059;-57
2022/06/20 04:37:23;;;;;;;27.00;13.98;;;;;;;;;;5062047;28;20400;-57
2022/06/20 04:40:00;;;;;;;25.17;13.20;;;;;;;;;;5069459;28;20115;-57
2022/06/20 04:42:40;;;;;;;34.53;14.95;;;;;;;;;;5062458;28;20025;-57
2022/06/20 04:45:28;;;;;;;28.30;15.10;;;;;;;;;;5066782;28;20033;-56
2022/06/20 04:48:06;;;;;;;31.75;15.30;;;;;;;;;;5072654;28;20082;-57
2022/06/20 04:50:34;;;;;;;35.33;16.80;;;;;;;;;;5067141;28;20039;-57
2022/06/20 04:53:05;;;;;;;38.67;14.93;;;;;;;;;;5071813;28;20085;-58
2022/06/20 04:55:33;;;;;;;30.17;15.48;;;;;;;;;;5068202;28;20121;-58
2022/06/20 04:58:02;;;;;;;27.13;15.45;;;;;;;;;;5074679;28;20425;-57
2022/06/20 05:00:34;;;;;;;30.90;15.23;;;;;;;;;;5065711;28;20031;-57
2022/06/20 05:03:00;;;;;;;31.30;15.60;;;;;;;;;;5071454;28;20032;-57
2022/06/20 05:05:30;;;;;;;36.10;14.90;;;;;;;;;;5068027;28;20517;-59
2022/06/20 05:07:56;;;;;;;26.48;14.88;;;;;;;;;;5067615;28;20038;-59
2022/06/20 05:10:22;;;;;;;33.15;15.05;;;;;;;;;;5068002;28;20025;-57
2022/06/20 05:12:56;;;;;;;30.10;15.55;;;;;;;;;;5065061;28;20503;-59
2022/06/20 05:15:34;;;;;;;27.88;15.27;;;;;;;;;;5071304;28;20458;-58
2022/06/20 05:18:16;;;;;;;29.20;15.55;;;;;;;;;;5068900;28;20107;-59
2022/06/20 05:20:43;;;;;;;29.83;15.63;;;;;;;;;;5071339;28;20071;-58
2022/06/20 05:23:17;;;;;;;27.70;14.55;;;;;;;;;;5071310;28;20025;-57
2022/06/20 05:25:43;;;;;;;24.70;13.88;;;;;;;;;;5071144;28;20028;-57
2022/06/20 05:28:18;;;;;;;25.13;14.27;;;;;;;;;;5073826;28;20123;-57
2022/06/20 05:30:46;;;;;;;29.13;13.68;;;;;;;;;;5071564;28;20096;-55
2022/06/20 05:33:17;;;;;;;26.40;14.57;;;;;;;;;;5074021;28;20032;-55
2022/06/20 05:35:52;;;;;;;30.13;14.25;;;;;;;;;;5067140;28;20048;-55
2022/06/20 05:38:17;;;;;;;27.90;14.75;;;;;;;;;;5067146;28;20166;-55
2022/06/20 05:40:47;;;;;;;27.88;14.85;;;;;;;;;;5061038;28;20141;-55
2022/06/20 05:43:20;;;;;;;29.77;14.35;;;;;;;;;;5069839;28;20063;-55
2022/06/20 05:45:59;;;;;;;28.75;14.55;;;;;;;;;;5066981;28;20036;-55
2022/06/20 05:48:33;;;;;;;23.13;13.50;;;;;;;;;;5059686;28;20052;-55
2022/06/20 05:51:06;;;;;;;23.40;12.38;;;;;;;;;;5065180;28;20544;-55
2022/06/20 05:53:43;;;;;;;28.52;12.68;;;;;;;;;;5067348;28;20037;-56
2022/06/20 05:56:25;;;;;;;22.83;13.30;;;;;;;;;;5066725;28;20025;-53
2022/06/20 05:58:51;;;;;;;21.17;12.75;;;;;;;;;;5072912;28;20403;-56
2022/06/20 06:01:22;;;;;;;24.95;12.68;;;;;;;;;;5065655;28;20119;-55
2022/06/20 06:03:47;;;;;;;29.20;12.60;;;;;;;;;;5074134;28;20028;-55
2022/06/20 06:06:29;;;;;;;26.75;12.75;;;;;;;;;;5074786;28;20081;-55
2022/06/20 06:09:34;;;;;;;26.75;12.73;;;;;;;;;;5063221;28;20029;-55
2022/06/20 06:12:08;;;;;;;22.13;12.77;;;;;;;;;;5050276;28;20041;-56
2022/06/20 06:14:43;;;;;;;23.02;12.45;;;;;;;;;;5065787;28;20025;-56
2022/06/20 06:17:11;;;;;;;24.88;13.18;;;;;;;;;;5069894;28;20074;-56
2022/06/20 06:19:45;;;;;;;23.83;12.73;;;;;;;;;;5068923;28;20113;-58
2022/06/20 06:22:17;;;;;;;19.42;11.35;;;;;;;;;;5067246;28;20032;-58
2022/06/20 06:24:46;;;;;;;24.70;12.48;;;;;;;;;;5068245;28;20038;-58
2022/06/20 06:27:24;;;;;;;22.90;12.07;;;;;;;;;;5065691;28;20029;-58
2022/06/20 06:30:17;;;;;;;21.70;11.63;;;;;;;;;;5067330;28;20042;-58
2022/06/20 06:32:48;;;;;;;23.77;11.80;;;;;;;;;;5066626;28;20034;-59
2022/06/20 06:35:22;;;;;;;22.60;11.70;;;;;;;;;;5066645;28;20495;-57
2022/06/20 06:37:55;;;;;;;21.48;11.70;;;;;;;;;;5069953;28;20515;-57
2022/06/20 06:40:26;;;;;;;22.40;11.30;;;;;;;;;;5066412;28;20352;-57
2022/06/20 06:42:55;;;;;;;19.02;11.98;;;;;;;;;;5068822;28;20031;-57
2022/06/20 06:45:27;;;;;;;18.58;10.95;;;;;;;;;;5068236;28;20029;-57
2022/06/20 06:48:04;;;;;;;20.33;10.73;;;;;;;;;;5064632;28;20028;-57
2022/06/20 06:50:43;;;;;;;21.90;11.27;;;;;;;;;;5072438;28;20100;-57
2022/06/20 06:53:35;;;;;;;18.23;11.00;;;;;;;;;;5072601;28;20107;-58
2022/06/20 06:56:08;;;;;;;20.85;10.45;;;;;;;;;;5064350;28;20048;-58
2022/06/20 06:59:02;;;;;;;24.83;10.80;;;;;;;;;;5062154;28;20114;-58
2022/06/20 07:01:45;;;;;;;16.73;9.80;;;;;;;;;;5065971;28;20039;-58
2022/06/20 07:04:33;;;;;;;19.45;10.00;;;;;;;;;;5063741;28;20376;-58
2022/06/20 07:07:26;;;;;;;26.48;12.52;;;;;;;;;;5064583;28;20060;-58
2022/06/20 07:09:54;;;;;;;22.48;11.00;;;;;;;;;;5060692;28;20499;-58
2022/06/20 07:12:42;;;;;;;25.02;10.73;;;;;;;;;;5068577;28;20037;-58
2022/06/20 07:15:13;;;;;;;16.15;10.13;;;;;;;;;;5062670;28;20395;-58
2022/06/20 07:17:50;;;;;;;18.23;9.48;;;;;;;;;;5064227;28;20032;-58
2022/06/20 07:20:17;;;;;;;18.55;8.68;;;;;;;;;;5068759;28;20398;-58
2022/06/20 07:22:43;;;;;;;17.33;9.00;;;;;;;;;;5068346;28;20399;-58
2022/06/20 07:25:26;;;;;;;18.00;9.00;;;;;;;;;;5069850;28;20036;-58
2022/06/20 07:28:14;;;;;;;18.92;8.63;;;;;;;;;;5069827;28;20372;-58
2022/06/20 07:30:47;;;;;;;21.20;9.40;;;;;;;;;;5067100;28;20040;-58
2022/06/20 07:33:29;;;;;;;17.60;9.75;;;;;;;;;;5069707;28;20044;-58
2022/06/20 07:35:58;;;;;;;15.38;8.70;;;;;;;;;;5069897;28;20020;-58
2022/06/20 07:38:43;;;;;;;17.90;9.27;;;;;;;;;;5069127;28;20028;-58
2022/06/20 07:41:13;;;;;;;14.25;9.10;;;;;;;;;;5072789;28;20024;-58
2022/06/20 07:43:44;;;;;;;20.05;8.77;;;;;;;;;;5072455;28;20149;-58
2022/06/20 07:46:16;;;;;;;15.40;8.45;;;;;;;;;;5065879;28;20036;-58
2022/06/20 07:48:44;;;;;;;17.75;8.55;;;;;;;;;;5069702;28;20059;-58
2022/06/20 07:51:10;;;;;;;19.30;8.53;;;;;;;;;;5073128;28;20407;-58
2022/06/20 07:53:49;;;;;;;13.95;8.35;;;;;;;;;;5065769;28;20029;-58
2022/06/20 07:56:29;;;;;;;19.83;9.10;;;;;;;;;;5062802;28;20059;-58
2022/06/20 07:59:01;;;;;;;17.75;10.40;;;;;;;;;;5070469;28;20095;-57
2022/06/20 08:01:42;;;;;;;10.82;8.40;;;;;;;;;;5074167;28;20024;-58
2022/06/20 08:04:10;;;;;;;14.20;9.23;;;;;;;;;;5063308;28;20029;-58
2022/06/20 08:06:42;;;;;;;16.83;8.85;;;;;;;;;;5065886;28;20493;-58
2022/06/20 08:09:07;;;;;;;20.92;9.85;;;;;;;;;;5065087;28;20412;-58
2022/06/20 08:11:46;;;;;;;16.45;9.05;;;;;;;;;;5055995;28;20033;-58
2022/06/20 08:14:35;;;;;;;17.30;10.23;;;;;;;;;;5061782;28;20048;-58
2022/06/20 08:17:03;;;;;;;30.92;16.35;;;;;;;;;;5064956;28;20081;-58
2022/06/20 08:19:30;;;;;;;15.48;9.13;;;;;;;;;;5067805;28;20571;-58
2022/06/20 08:22:06;;;;;;;21.23;9.52;;;;;;;;;;5068032;28;20085;-58
2022/06/20 08:24:47;;;;;;;20.77;9.85;;;;;;;;;;5063217;28;20025;-58
2022/06/20 08:27:25;;;;;;;19.98;10.18;;;;;;;;;;5067914;28;20035;-58
2022/06/20 08:30:01;;;;;;;18.15;9.90;;;;;;;;;;5064741;28;20052;-58
2022/06/20 08:32:35;;;;;;;15.57;10.30;;;;;;;;;;5060736;28;20025;-58
2022/06/20 08:35:28;;;;;;;19.02;10.77;;;;;;;;;;5065271;28;20044;-58
2022/06/20 08:38:05;;;;;;;18.02;10.70;;;;;;;;;;5066465;28;20040;-58
2022/06/20 08:40:55;;;;;;;14.65;9.73;;;;;;;;;;5072324;28;20106;-58
2022/06/20 08:43:38;;;;;;;16.98;9.85;;;;;;;;;;5071145;28;20365;-58
2022/06/20 08:46:07;;;;;;;16.70;10.95;;;;;;;;;;5071515;28;20387;-58
2022/06/20 08:49:08;;;;;;;17.47;9.67;;;;;;;;;;5067103;28;20020;-58
2022/06/20 08:52:24;;;;;;;20.85;10.32;;;;;;;;;;5046036;28;20773;-58
2022/06/20 08:55:24;;;;;;;18.08;10.25;;;;;;;;;;5065095;28;20652;-58
2022/06/20 08:58:12;;;;;;;16.30;10.00;;;;;;;;;;5068069;28;20036;-59
2022/06/20 09:01:11;;;;;;;14.93;11.07;;;;;;;;;;5068624;28;20030;-58
2022/06/20 09:03:36;;;;;;;;;;;;;;;;;;5068523;28;20032;-58
2022/06/20 09:06:24;;;;;;;16.70;10.60;;;;;;;;;;5065725;28;20295;-58
2022/06/20 09:09:21;;;;;;;17.48;10.55;;;;;;;;;;5062775;28;20284;-58
2022/06/20 09:11:49;;;;;;;10.98;9.63;;;;;;;;;;5058358;28;20039;-58
2022/06/20 09:14:23;;;;;;;15.95;10.85;;;;;;;;;;5062620;28;20547;-58
2022/06/20 09:17:18;;;;;;;25.70;11.40;;;;;;;;;;5062524;28;20079;-58
2022/06/20 09:19:56;;;;;;;18.45;10.60;;;;;;;;;;5058698;28;20043;-58
2022/06/20 09:23:00;;;;;;;18.87;11.70;;;;;;;;;;5067259;28;20016;-59
2022/06/20 09:25:55;;;;;;;12.98;10.98;;;;;;;;;;5066620;28;20036;-59
2022/06/20 09:28:44;;;;;;;20.35;10.63;;;;;;;;;;5062211;28;20043;-59
2022/06/20 09:31:31;;;;;;;18.52;10.93;;;;;;;;;;5066258;28;20034;-59
2022/06/20 09:33:56;;;;;;;27.80;10.95;;;;;;;;;;5068812;28;20041;-58
2022/06/20 09:36:22;;;;;;;18.92;11.55;;;;;;;;;;5066311;28;20039;-59
2022/06/20 09:39:09;;;;;;;13.88;10.93;;;;;;;;;;5067049;28;20099;-59
2022/06/20 09:41:43;;;;;;;18.80;11.07;;;;;;;;;;5069535;28;20032;-59
2022/06/20 09:44:27;;;;;;;11.90;10.43;;;;;;;;;;5069672;28;20107;-58
2022/06/20 09:47:14;;;;;;;13.50;10.35;;;;;;;;;;5070041;28;20039;-58
2022/06/20 09:49:51;;;;;;;17.92;11.15;;;;;;;;;;5067382;28;20036;-59
2022/06/20 09:52:27;;;;;;;26.67;13.43;;;;;;;;;;5069926;28;20053;-59
2022/06/20 09:54:58;;;;;;;19.88;14.00;;;;;;;;;;5077389;28;20063;-58
2022/06/20 09:57:42;;;;;;;20.77;12.93;;;;;;;;;;5067115;28;20020;-59
2022/06/20 10:00:23;;;;;;;17.83;10.57;;;;;;;;;;5059945;28;20040;-59
2022/06/20 10:03:15;;;;;;;16.40;9.68;;;;;;;;;;5063479;28;20029;-59
2022/06/20 10:05:49;;;;;;;15.68;10.07;;;;;;;;;;5063635;28;20506;-59
2022/06/20 10:08:59;;;;;;;19.50;9.80;;;;;;;;;;5064718;28;20496;-59
2022/06/20 10:11:40;;;;;;;13.70;10.18;;;;;;;;;;5063710;28;20036;-59
2022/06/20 10:14:29;;;;;;;15.18;8.88;;;;;;;;;;5069582;28;20115;-59
2022/06/20 10:16:58;;;;;;;16.52;9.63;;;;;;;;;;5068678;28;20032;-59
2022/06/20 10:19:34;;;;;;;15.50;9.13;;;;;;;;;;5071035;28;20270;-59
2022/06/20 10:22:22;;;;;;;15.75;9.20;;;;;;;;;;5065159;28;20036;-59
2022/06/20 10:25:18;;;;;;;22.67;9.32;;;;;;;;;;5067870;28;20094;-59
2022/06/20 10:28:08;;;;;;;13.07;9.55;;;;;;;;;;5067109;28;20077;-59
2022/06/20 10:30:53;;;;;;;12.50;9.13;;;;;;;;;;5070164;28;20388;-59
2022/06/20 10:33:21;;;;;;;16.77;9.32;;;;;;;;;;5070523;28;20516;-59
2022/06/20 10:35:58;;;;;;;17.45;9.60;;;;;;;;;;5069459;28;20133;-59
2022/06/20 10:38:36;;;;;;;15.77;9.00;;;;;;;;;;5068484;28;20264;-59
2022/06/20 10:41:06;;;;;;;12.90;8.80;;;;;;;;;;5070409;28;20028;-59
2022/06/20 10:43:41;;;;;;;13.60;9.55;;;;;;;;;;5065890;28;20121;-59
2022/06/20 10:46:21;;;;;;;16.13;8.95;;;;;;;;;;5066007;28;20032;-59
2022/06/20 10:49:05;;;;;;;11.98;8.25;;;;;;;;;;5069111;28;20028;-59
2022/06/20 10:52:02;;;;;;;13.20;8.68;;;;;;;;;;5060195;28;20057;-58
2022/06/20 10:54:39;;;;;;;15.25;8.23;;;;;;;;;;5066981;28;20036;-57
2022/06/20 10:57:36;;;;;;;12.98;7.97;;;;;;;;;;5065112;28;20083;-59
2022/06/20 11:00:12;;;;;;;20.52;8.40;;;;;;;;;;5060116;28;20539;-58
2022/06/20 11:03:02;;;;;;;14.05;8.55;;;;;;;;;;5066899;28;20027;-59
2022/06/20 11:05:28;;;;;;;16.83;8.55;;;;;;;;;;5063253;28;20036;-59
2022/06/20 11:08:21;;;;;;;18.63;8.57;;;;;;;;;;5064543;28;20032;-58
2022/06/20 11:11:06;;;;;;;13.90;8.15;;;;;;;;;;5063769;28;20020;-58
2022/06/20 11:13:56;;;;;;;11.32;7.88;;;;;;;;;;5069610;28;20028;-58
2022/06/20 11:16:39;;;;;;;12.15;8.13;;;;;;;;;;5070422;28;20032;-59
2022/06/20 11:19:23;;;;;;;11.73;8.05;;;;;;;;;;5067848;28;20055;-59
2022/06/20 11:22:15;;;;;;;21.10;9.50;;;;;;;;;;5068848;28;20420;-59
2022/06/20 11:25:09;;;;;;;18.40;10.05;;;;;;;;;;5067587;28;20032;-59
2022/06/20 11:27:50;;;;;;;24.77;10.95;;;;;;;;;;5069956;28;20321;-59
2022/06/20 11:30:49;;;;;;;15.48;9.55;;;;;;;;;;5062630;28;20020;-59
2022/06/20 11:33:20;;;;;;;22.20;10.40;;;;;;;;;;5069374;28;20096;-59
2022/06/20 11:36:01;;;;;;;22.73;10.70;;;;;;;;;;5065927;28;20099;-59
2022/06/20 11:38:49;;;;;;;21.33;11.70;;;;;;;;;;5068210;28;20043;-59
2022/06/20 11:41:15;;;;;;;;;;;;;;;;;;5063071;28;20024;-58
2022/06/20 11:43:50;;;;;;;23.02;11.60;;;;;;;;;;5068214;28;20316;-58
2022/06/20 11:46:33;;;;;;;16.23;11.13;;;;;;;;;;5063875;28;20037;-59
2022/06/20 11:49:31;;;;;;;18.27;10.52;;;;;;;;;;5066156;28;20031;-59
2022/06/20 11:52:20;;;;;;;22.10;11.65;;;;;;;;;;5063826;28;20034;-57
2022/06/20 11:55:13;;;;;;;26.17;10.82;;;;;;;;;;5072098;28;20132;-57
2022/06/20 11:57:53;;;;;;;16.25;9.50;;;;;;;;;;5062689;28;20539;-58
2022/06/20 12:00:27;;;;;;;16.88;9.80;;;;;;;;;;5057685;28;20511;-58
2022/06/20 12:03:14;;;;;;;17.75;10.10;;;;;;;;;;5059018;28;20291;-58
2022/06/20 12:05:56;;;;;;;18.63;9.38;;;;;;;;;;5056953;28;20527;-58
2022/06/20 12:08:25;;;;;;;14.18;7.75;;;;;;;;;;5061814;28;20067;-57
2022/06/20 12:11:02;;;;;;;13.55;7.32;;;;;;;;;;5054305;28;20077;-58
2022/06/20 12:13:43;;;;;;;11.43;7.40;;;;;;;;;;5064256;28;20039;-57
2022/06/20 12:16:11;;;;;;;15.90;7.88;;;;;;;;;;5066478;28;20024;-57
2022/06/20 12:23:18;;;;;;;11.25;7.03;;;;;;;;;;5068102;28;20406;-58
2022/06/20 12:24:18;;;;;;;8.43;6.72;;;;;;;;;;5060595;28;20043;-57
2022/06/20 12:26:44;;;;;;;15.32;7.15;;;;;;;;;;5059750;28;20039;-57
2022/06/20 12:29:18;;;;;;;12.13;7.85;;;;;;;;;;5062781;28;20178;-57
2022/06/20 12:31:48;;;;;;;18.10;7.40;;;;;;;;;;5066289;28;20498;-57
2022/06/20 12:34:16;;;;;;;20.33;7.90;;;;;;;;;;5067289;28;20039;-57
2022/06/20 12:36:57;;;;;;;14.45;8.75;;;;;;;;;;5067004;28;20028;-57
2022/06/20 12:39:37;;;;;;;15.93;8.68;;;;;;;;;;5063964;28;20122;-57
2022/06/20 12:42:23;;;;;;;16.67;8.80;;;;;;;;;;5070723;28;20024;-57
2022/06/20 12:44:48;;;;;;;22.20;10.27;;;;;;;;;;5053828;28;20467;-57
2022/06/20 12:47:39;;;;;;;17.55;9.40;;;;;;;;;;5055746;28;20032;-57
2022/06/20 12:50:33;;;;;;;15.73;8.50;;;;;;;;;;5057257;28;20041;-57
2022/06/20 12:53:17;;;;;;;20.92;9.25;;;;;;;;;;5063658;28;20473;-57
2022/06/20 12:56:01;;;;;;;15.57;8.15;;;;;;;;;;5060388;28;20047;-57
2022/06/20 12:58:29;;;;;;;15.63;7.53;;;;;;;;;;5059581;28;20034;-57
2022/06/20 13:01:20;;;;;;;13.05;6.00;;;;;;;;;;5051414;28;20070;-57
2022/06/20 13:04:21;;;;;;;13.88;5.78;;;;;;;;;;5053170;28;20495;-57
2022/06/20 13:07:12;;;;;;;12.20;4.65;;;;;;;;;;5058316;28;20028;-56
2022/06/20 13:09:52;;;;;;;7.93;4.75;;;;;;;;;;5062812;28;20028;-56
2022/06/20 13:12:39;;;;;;;10.55;4.10;;;;;;;;;;5057571;28;20024;-56
2022/06/20 13:15:13;;;;;;;9.73;4.15;;;;;;;;;;5058400;28;20037;-56
2022/06/20 13:18:05;;;;;;;6.68;3.88;;;;;;;;;;5058814;28;20025;-56
2022/06/20 13:20:39;;;;;;;9.18;4.20;;;;;;;;;;5061719;28;20024;-56
2022/06/20 13:23:36;;;;;;;9.32;4.18;;;;;;;;;;5056960;28;20033;-57
2022/06/20 13:26:16;;;;;;;11.70;5.05;;;;;;;;;;5062598;28;20322;-56
2022/06/20 13:29:01;;;;;;;10.82;4.75;;;;;;;;;;5039697;28;20025;-57
2022/06/20 13:31:41;;;;;;;12.25;5.88;;;;;;;;;;5061548;28;20340;-56
2022/06/20 13:34:06;;;;;;;11.93;6.28;;;;;;;;;;5062481;28;20024;-56
2022/06/20 13:36:51;;;;;;;12.60;6.85;;;;;;;;;;5064337;28;20055;-56
2022/06/20 13:39:17;;;;;;;21.38;6.80;;;;;;;;;;5061234;28;20555;-56
2022/06/20 13:42:11;;;;;;;13.60;7.50;;;;;;;;;;5055167;28;20156;-56
2022/06/20 13:44:39;;;;;;;15.63;7.07;;;;;;;;;;5059853;28;20111;-55
2022/06/20 13:47:33;;;;;;;13.73;7.50;;;;;;;;;;5059420;28;20369;-56
2022/06/20 13:50:20;;;;;;;17.75;7.43;;;;;;;;;;5062755;28;20400;-55
2022/06/20 13:53:08;;;;;;;11.77;6.82;;;;;;;;;;5061103;28;20078;-56
2022/06/20 13:56:14;;;;;;;13.05;6.30;;;;;;;;;;5064066;28;20033;-56
2022/06/20 13:58:53;;;;;;;14.55;7.63;;;;;;;;;;5019399;28;20056;-56
2022/06/20 14:01:20;;;;;;;14.60;7.35;;;;;;;;;;5049396;28;20419;-56
2022/06/20 14:03:53;;;;;;;14.60;7.43;;;;;;;;;;5062080;28;20070;-56
2022/06/20 14:06:22;;;;;;;15.98;7.57;;;;;;;;;;5061835;28;20543;-56
2022/06/20 14:08:51;;;;;;;26.00;8.57;;;;;;;;;;5054330;28;20024;-55
2022/06/20 14:11:29;;;;;;;19.38;8.60;;;;;;;;;;5055751;28;20074;-55
2022/06/20 14:13:55;;;;;;;18.17;8.68;;;;;;;;;;5063160;28;20037;-55
2022/06/20 14:16:27;;;;;;;20.38;8.75;;;;;;;;;;5068892;28;20519;-55
2022/06/20 14:19:00;;;;;;;17.50;9.25;;;;;;;;;;5067513;28;20064;-55
2022/06/20 14:21:39;;;;;;;17.30;9.93;;;;;;;;;;5067420;28;20147;-54
2022/06/20 14:24:14;;;;;;;;;;;;;;;;;;5070095;28;20455;-56
2022/06/20 14:26:39;;;;;;;24.55;10.27;;;;;;;;;;5065977;28;19920;-54
2022/06/20 14:29:59;;;;;;;21.75;9.50;;;;;;;;;;5069672;28;20067;-56
2022/06/20 14:32:50;;;;;;;18.00;9.50;;;;;;;;;;5067955;28;20032;-55
2022/06/20 14:35:21;;;;;;;16.27;9.20;;;;;;;;;;5061247;28;20407;-54
2022/06/20 14:37:56;;;;;;;18.85;9.07;;;;;;;;;;5069453;28;20028;-54
2022/06/20 14:40:45;;;;;;;18.98;9.77;;;;;;;;;;5066553;28;20024;-55
2022/06/20 14:43:30;;;;;;;26.23;10.15;;;;;;;;;;5062406;28;20020;-55
2022/06/20 14:46:00;;;;;;;21.80;9.95;;;;;;;;;;5062774;28;20035;-56
2022/06/20 14:48:39;;;;;;;22.55;9.30;;;;;;;;;;5067560;28;20031;-56
2022/06/20 14:51:10;;;;;;;;;;;;;;;;;;5064168;28;20499;-56
2022/06/20 14:53:59;;;;;;;15.32;9.30;;;;;;;;;;5070145;28;19997;-56
2022/06/20 14:56:40;;;;;;;16.80;9.63;;;;;;;;;;5065126;28;20111;-55
2022/06/20 14:59:18;;;;;;;19.08;8.98;;;;;;;;;;5062007;28;20307;-55
2022/06/20 15:01:59;;;;;;;16.70;9.00;;;;;;;;;;5061329;28;20026;-55
2022/06/20 15:04:43;;;;;;;17.75;10.35;;;;;;;;;;5064850;28;20442;-55
2022/06/20 15:07:47;;;;;;;16.42;9.60;;;;;;;;;;5066070;28;20025;-54
2022/06/20 15:10:29;;;;;;;12.90;8.90;;;;;;;;;;5043765;28;20042;-56
2022/06/20 15:13:02;;;;;;;21.17;9.93;;;;;;;;;;5066162;28;20036;-56
2022/06/20 15:15:44;;;;;;;13.05;8.88;;;;;;;;;;5063684;28;20032;-55
2022/06/20 15:18:09;;;;;;;14.77;9.15;;;;;;;;;;5062860;28;20106;-56
2022/06/20 15:20:45;;;;;;;15.80;8.65;;;;;;;;;;5058523;28;20021;-55
2022/06/20 15:23:26;;;;;;;17.88;9.60;;;;;;;;;;5060663;28;20027;-56
2022/06/20 15:25:52;;;;;;;14.13;8.13;;;;;;;;;;5057281;28;20115;-52
2022/06/20 15:28:23;;;;;;;17.52;8.25;;;;;;;;;;5069875;28;20058;-56